createdAt,value
2018-12-21T00:00:02.676Z,4.18
2018-12-21T00:01:02.982Z,4.18
2018-12-21T00:02:02.280Z,4.18
2018-12-21T00:03:02.643Z,4.12
2018-12-21T00:04:02.941Z,4.18
2018-12-21T00:05:03.291Z,4.18
2018-12-21T00:06:02.599Z,4.18
2018-12-21T00:07:02.921Z,4.12
2018-12-21T00:08:03.285Z,4.18
2018-12-21T00:09:02.590Z,4.18
2018-12-21T00:10:02.825Z,4.18
2018-12-21T00:11:03.160Z,4.18
2018-12-21T00:12:02.525Z,4.18
2018-12-21T00:13:02.838Z,4.18
2018-12-21T00:14:03.214Z,4.12
2018-12-21T00:15:02.507Z,4.12
2018-12-21T00:16:02.779Z,4.12
2018-12-21T00:17:03.082Z,4.12
2018-12-21T00:18:02.368Z,4.12
2018-12-21T00:19:02.678Z,4.06
2018-12-21T00:20:03.055Z,4.12
2018-12-21T00:21:02.421Z,4.06
2018-12-21T00:22:02.683Z,4.06
2018-12-21T00:23:03.017Z,4.12
2018-12-21T00:24:02.283Z,4.12
2018-12-21T00:25:02.650Z,4.18
2018-12-21T00:26:02.968Z,4.12
2018-12-21T00:27:02.281Z,4.37
2018-12-21T00:28:02.599Z,4.43
2018-12-21T00:29:02.924Z,4.43
2018-12-21T00:30:03.228Z,4.37
2018-12-21T00:31:02.545Z,4.25
2018-12-21T00:32:02.929Z,4.37
2018-12-21T00:33:03.234Z,4.31
2018-12-21T00:34:02.523Z,4.18
2018-12-21T00:35:02.853Z,4.25
2018-12-21T00:36:03.253Z,4.25
2018-12-21T00:37:02.571Z,4.31
2018-12-21T00:38:02.839Z,4.31
2018-12-21T00:39:03.190Z,4.25
2018-12-21T00:40:02.561Z,4.25
2018-12-21T00:41:02.830Z,4.25
2018-12-21T00:42:03.164Z,4.25
2018-12-21T00:43:02.434Z,4.31
2018-12-21T00:44:02.775Z,4.31
2018-12-21T00:45:03.069Z,4.37
2018-12-21T00:46:02.362Z,4.37
2018-12-21T00:47:02.697Z,4.31
2018-12-21T00:48:03.087Z,4.31
2018-12-21T00:49:02.356Z,4.37
2018-12-21T00:50:02.609Z,4.37
2018-12-21T00:51:02.968Z,4.37
2018-12-21T00:52:02.324Z,4.37
2018-12-21T00:53:02.602Z,4.37
2018-12-21T00:54:02.967Z,4.37
2018-12-21T00:55:02.281Z,4.37
2018-12-21T00:56:02.613Z,4.37
2018-12-21T00:57:02.910Z,4.31
2018-12-21T00:58:03.156Z,4.31
2018-12-21T00:59:02.486Z,4.37
2018-12-21T01:00:02.855Z,4.37
2018-12-21T01:01:03.150Z,4.31
2018-12-21T01:02:02.447Z,4.31
2018-12-21T01:03:02.778Z,4.37
2018-12-21T01:04:03.079Z,4.37
2018-12-21T01:05:02.437Z,4.5
2018-12-21T01:06:02.778Z,4.43
2018-12-21T01:07:03.130Z,4.37
2018-12-21T01:08:02.435Z,4.56
2018-12-21T01:09:02.762Z,4.56
2018-12-21T01:10:03.137Z,4.56
2018-12-21T01:11:02.460Z,4.56
2018-12-21T01:12:02.804Z,4.62
2018-12-21T01:13:03.084Z,4.62
2018-12-21T01:14:02.415Z,4.5
2018-12-21T01:15:02.730Z,4.5
2018-12-21T01:16:03.086Z,4.56
2018-12-21T01:17:02.353Z,4.5
2018-12-21T01:18:02.676Z,4.56
2018-12-21T01:19:02.990Z,4.56
2018-12-21T01:20:02.275Z,4.62
2018-12-21T01:21:02.598Z,4.62
2018-12-21T01:22:02.980Z,4.68
2018-12-21T01:23:02.378Z,4.62
2018-12-21T01:24:02.678Z,4.62
2018-12-21T01:25:02.994Z,4.56
2018-12-21T01:26:02.271Z,4.56
2018-12-21T01:27:02.514Z,4.43
2018-12-21T01:28:02.897Z,4.5
2018-12-21T01:29:03.157Z,4.5
2018-12-21T01:30:02.439Z,4.5
2018-12-21T01:31:02.774Z,4.43
2018-12-21T01:32:03.072Z,4.5
2018-12-21T01:33:02.366Z,4.56
2018-12-21T01:34:02.774Z,4.62
2018-12-21T01:35:03.112Z,4.68
2018-12-21T01:36:02.371Z,4.75
2018-12-21T01:37:02.684Z,4.75
2018-12-21T01:38:03.059Z,4.68
2018-12-21T01:39:02.406Z,4.68
2018-12-21T01:40:02.776Z,4.75
2018-12-21T01:41:03.081Z,4.75
2018-12-21T01:42:02.345Z,4.75
2018-12-21T01:43:02.616Z,4.62
2018-12-21T01:44:02.925Z,4.56
2018-12-21T01:45:03.300Z,4.75
2018-12-21T01:46:02.604Z,4.68
2018-12-21T01:47:02.919Z,4.68
2018-12-21T01:48:03.234Z,4.68
2018-12-21T01:49:02.511Z,4.62
2018-12-21T01:50:02.762Z,4.62
2018-12-21T01:51:03.159Z,4.68
2018-12-21T01:52:02.513Z,4.62
2018-12-21T01:53:02.814Z,4.62
2018-12-21T01:54:03.152Z,4.56
2018-12-21T01:55:02.431Z,4.68
2018-12-21T01:56:02.762Z,4.68
2018-12-21T01:57:03.081Z,4.62
2018-12-21T01:58:02.359Z,4.62
2018-12-21T01:59:02.683Z,4.56
2018-12-21T02:00:03.002Z,4.56
2018-12-21T02:01:02.330Z,4.62
2018-12-21T02:02:02.597Z,4.5
2018-12-21T02:03:02.918Z,4.5
2018-12-21T02:04:03.237Z,4.75
2018-12-21T02:05:02.528Z,4.75
2018-12-21T02:06:03.084Z,4.68
2018-12-21T02:07:02.383Z,4.68
2018-12-21T02:08:02.892Z,4.56
2018-12-21T02:09:03.530Z,4.56
2018-12-21T02:10:03.030Z,4.56
2018-12-21T02:11:02.523Z,4.62
2018-12-21T02:12:03.079Z,4.56
2018-12-21T02:13:03.436Z,4.56
2018-12-21T02:14:02.891Z,4.5
2018-12-21T02:15:03.163Z,4.5
2018-12-21T02:16:02.486Z,4.43
2018-12-21T02:17:02.887Z,4.5
2018-12-21T02:18:03.178Z,4.5
2018-12-21T02:19:02.439Z,4.43
2018-12-21T02:20:03.644Z,4.5
2018-12-21T02:21:02.929Z,4.5
2018-12-21T02:22:03.286Z,4.43
2018-12-21T02:23:03.473Z,4.43
2018-12-21T02:24:02.764Z,4.43
2018-12-21T02:25:03.132Z,4.5
2018-12-21T02:26:02.432Z,4.43
2018-12-21T02:27:02.767Z,4.43
2018-12-21T02:28:03.153Z,4.5
2018-12-21T02:29:02.459Z,4.43
2018-12-21T02:30:02.763Z,4.43
2018-12-21T02:31:03.966Z,4.5
2018-12-21T02:32:02.275Z,4.43
2018-12-21T02:33:02.606Z,4.5
2018-12-21T02:34:02.989Z,4.5
2018-12-21T02:35:02.267Z,4.5
2018-12-21T02:36:02.512Z,4.5
2018-12-21T02:37:02.894Z,4.56
2018-12-21T02:38:03.155Z,4.56
2018-12-21T02:39:02.445Z,4.5
2018-12-21T02:40:02.832Z,4.56
2018-12-21T02:41:03.126Z,4.56
2018-12-21T02:42:02.442Z,4.56
2018-12-21T02:43:02.766Z,4.5
2018-12-21T02:44:03.077Z,4.56
2018-12-21T02:45:02.367Z,4.62
2018-12-21T02:46:02.735Z,4.62
2018-12-21T02:47:02.996Z,4.62
2018-12-21T02:48:02.292Z,4.62
2018-12-21T02:49:02.612Z,4.62
2018-12-21T02:50:02.927Z,4.56
2018-12-21T02:51:03.285Z,4.62
2018-12-21T02:52:05.547Z,4.62
2018-12-21T02:53:03.158Z,4.56
2018-12-21T02:54:02.458Z,4.68
2018-12-21T02:55:02.753Z,4.68
2018-12-21T02:56:03.043Z,4.68
2018-12-21T02:57:02.449Z,4.68
2018-12-21T02:58:02.760Z,4.62
2018-12-21T02:59:03.078Z,4.56
2018-12-21T03:00:02.418Z,4.56
2018-12-21T03:01:02.680Z,4.5
2018-12-21T03:02:03.092Z,4.5
2018-12-21T03:03:02.362Z,4.5
2018-12-21T03:04:02.690Z,4.56
2018-12-21T03:05:03.000Z,4.56
2018-12-21T03:06:02.285Z,4.56
2018-12-21T03:07:03.691Z,4.62
2018-12-21T03:08:03.012Z,4.68
2018-12-21T03:09:02.275Z,4.75
2018-12-21T03:10:02.566Z,4.75
2018-12-21T03:11:02.886Z,4.62
2018-12-21T03:12:03.167Z,4.56
2018-12-21T03:13:02.552Z,4.68
2018-12-21T03:14:02.836Z,4.62
2018-12-21T03:15:03.163Z,4.62
2018-12-21T03:16:02.437Z,4.62
2018-12-21T03:17:02.765Z,4.62
2018-12-21T03:18:03.127Z,4.68
2018-12-21T03:19:02.433Z,4.56
2018-12-21T03:20:02.752Z,4.62
2018-12-21T03:21:03.078Z,4.62
2018-12-21T03:22:02.357Z,4.62
2018-12-21T03:23:02.604Z,4.56
2018-12-21T03:24:02.973Z,4.56
2018-12-21T03:25:02.274Z,4.56
2018-12-21T03:26:02.605Z,4.62
2018-12-21T03:27:02.973Z,4.75
2018-12-21T03:28:02.271Z,4.75
2018-12-21T03:29:02.621Z,4.68
2018-12-21T03:30:02.941Z,4.62
2018-12-21T03:31:03.243Z,4.56
2018-12-21T03:32:02.518Z,4.62
2018-12-21T03:33:02.838Z,4.75
2018-12-21T03:34:03.136Z,4.68
2018-12-21T03:35:02.467Z,4.68
2018-12-21T03:36:02.766Z,4.68
2018-12-21T03:37:03.081Z,4.62
2018-12-21T03:38:02.367Z,4.62
2018-12-21T03:39:02.689Z,4.62
2018-12-21T03:40:03.080Z,4.56
2018-12-21T03:41:02.356Z,4.75
2018-12-21T03:42:02.726Z,4.68
2018-12-21T03:43:03.049Z,4.68
2018-12-21T03:44:02.347Z,4.68
2018-12-21T03:45:02.620Z,4.68
2018-12-21T03:46:02.970Z,4.68
2018-12-21T03:47:02.297Z,4.62
2018-12-21T03:48:02.599Z,4.75
2018-12-21T03:49:02.923Z,4.75
2018-12-21T03:50:03.235Z,4.81
2018-12-21T03:51:02.574Z,4.93
2018-12-21T03:52:02.882Z,4.93
2018-12-21T03:53:03.161Z,5.06
2018-12-21T03:54:02.450Z,5
2018-12-21T03:55:02.784Z,5.06
2018-12-21T03:56:03.075Z,5.06
2018-12-21T03:57:02.425Z,5
2018-12-21T03:58:02.813Z,4.87
2018-12-21T03:59:03.088Z,4.81
2018-12-21T04:00:02.354Z,4.93
2018-12-21T04:01:02.675Z,4.87
2018-12-21T04:02:02.936Z,4.87
2018-12-21T04:03:03.244Z,4.87
2018-12-21T04:04:02.610Z,4.81
2018-12-21T04:05:02.911Z,4.81
2018-12-21T04:06:03.159Z,4.81
2018-12-21T04:07:02.452Z,4.75
2018-12-21T04:08:02.768Z,4.75
2018-12-21T04:09:03.128Z,4.75
2018-12-21T04:10:02.433Z,4.68
2018-12-21T04:11:03.560Z,4.68
2018-12-21T04:12:02.935Z,4.68
2018-12-21T04:13:03.241Z,4.62
2018-12-21T04:14:02.525Z,4.56
2018-12-21T04:15:02.899Z,4.68
2018-12-21T04:16:03.157Z,4.56
2018-12-21T04:17:02.451Z,4.56
2018-12-21T04:18:02.757Z,4.62
2018-12-21T04:19:03.080Z,4.62
2018-12-21T04:20:02.363Z,4.56
2018-12-21T04:21:02.742Z,4.5
2018-12-21T04:22:03.010Z,4.56
2018-12-21T04:23:02.278Z,4.56
2018-12-21T04:24:02.599Z,4.56
2018-12-21T04:25:02.927Z,4.56
2018-12-21T04:26:03.338Z,4.56
2018-12-21T04:27:02.656Z,4.56
2018-12-21T04:28:03.007Z,4.56
2018-12-21T04:29:02.276Z,4.56
2018-12-21T04:30:02.644Z,4.56
2018-12-21T04:31:02.970Z,4.56
2018-12-21T04:32:02.359Z,4.56
2018-12-21T04:33:02.671Z,4.5
2018-12-21T04:34:02.946Z,4.56
2018-12-21T04:35:03.244Z,4.62
2018-12-21T04:36:02.520Z,4.68
2018-12-21T04:37:02.924Z,4.75
2018-12-21T04:38:03.232Z,4.62
2018-12-21T04:39:02.538Z,4.56
2018-12-21T04:40:02.846Z,4.56
2018-12-21T04:41:03.166Z,4.62
2018-12-21T04:42:02.525Z,4.75
2018-12-21T04:43:02.834Z,4.56
2018-12-21T04:44:03.163Z,4.56
2018-12-21T04:45:02.452Z,4.5
2018-12-21T04:46:02.779Z,4.68
2018-12-21T04:47:03.138Z,4.68
2018-12-21T04:48:02.435Z,4.62
2018-12-21T04:49:02.816Z,4.62
2018-12-21T04:50:03.066Z,4.62
2018-12-21T04:51:02.359Z,4.62
2018-12-21T04:52:02.682Z,4.75
2018-12-21T04:53:03.054Z,4.75
2018-12-21T04:54:02.367Z,4.62
2018-12-21T04:55:02.710Z,4.56
2018-12-21T04:56:03.000Z,4.56
2018-12-21T04:57:02.367Z,4.62
2018-12-21T04:58:02.733Z,4.56
2018-12-21T04:59:02.999Z,4.62
2018-12-21T05:00:02.288Z,4.68
2018-12-21T05:01:02.589Z,4.75
2018-12-21T05:02:02.840Z,4.62
2018-12-21T05:03:03.225Z,4.62
2018-12-21T05:04:02.520Z,4.62
2018-12-21T05:05:02.895Z,4.62
2018-12-21T05:06:03.159Z,4.56
2018-12-21T05:07:02.439Z,4.56
2018-12-21T05:08:02.815Z,4.56
2018-12-21T05:09:04.004Z,4.62
2018-12-21T05:10:02.289Z,4.62
2018-12-21T05:11:02.670Z,4.62
2018-12-21T05:12:03.028Z,4.62
2018-12-21T05:13:02.284Z,4.56
2018-12-21T05:14:02.703Z,4.5
2018-12-21T05:15:03.057Z,4.5
2018-12-21T05:16:02.362Z,4.5
2018-12-21T05:17:02.671Z,4.56
2018-12-21T05:18:03.023Z,4.68
2018-12-21T05:19:02.363Z,4.56
2018-12-21T05:20:02.696Z,4.5
2018-12-21T05:21:03.068Z,4.5
2018-12-21T05:22:02.369Z,4.5
2018-12-21T05:23:02.786Z,4.5
2018-12-21T05:24:03.156Z,4.5
2018-12-21T05:25:02.459Z,4.56
2018-12-21T05:26:03.007Z,4.56
2018-12-21T05:27:02.359Z,4.5
2018-12-21T05:28:02.809Z,4.62
2018-12-21T05:29:03.974Z,4.68
2018-12-21T05:30:02.278Z,4.62
2018-12-21T05:31:02.641Z,4.68
2018-12-21T05:32:02.974Z,4.68
2018-12-21T05:33:02.276Z,4.62
2018-12-21T05:34:02.518Z,4.62
2018-12-21T05:35:02.857Z,4.75
2018-12-21T05:36:03.163Z,4.68
2018-12-21T05:37:02.468Z,4.62
2018-12-21T05:38:02.884Z,4.62
2018-12-21T05:39:03.224Z,4.56
2018-12-21T05:40:02.545Z,4.5
2018-12-21T05:41:02.853Z,4.5
2018-12-21T05:42:03.172Z,4.5
2018-12-21T05:43:02.503Z,4.43
2018-12-21T05:44:02.875Z,4.43
2018-12-21T05:45:03.175Z,4.43
2018-12-21T05:46:02.523Z,4.43
2018-12-21T05:47:02.837Z,4.43
2018-12-21T05:48:03.168Z,4.37
2018-12-21T05:49:02.492Z,4.43
2018-12-21T05:50:02.776Z,4.43
2018-12-21T05:51:03.953Z,4.37
2018-12-21T05:52:03.240Z,4.37
2018-12-21T05:53:02.536Z,4.37
2018-12-21T05:54:02.955Z,4.43
2018-12-21T05:55:03.316Z,4.43
2018-12-21T05:56:02.591Z,4.5
2018-12-21T05:57:02.943Z,4.43
2018-12-21T05:58:03.245Z,4.43
2018-12-21T05:59:02.536Z,4.43
2018-12-21T06:00:02.850Z,4.37
2018-12-21T06:01:03.215Z,4.56
2018-12-21T06:02:02.524Z,4.68
2018-12-21T06:03:02.837Z,4.81
2018-12-21T06:04:03.612Z,4.62
2018-12-21T06:05:02.545Z,4.62
2018-12-21T06:06:02.900Z,4.62
2018-12-21T06:07:03.150Z,4.62
2018-12-21T06:08:02.436Z,4.75
2018-12-21T06:09:02.860Z,4.75
2018-12-21T06:10:03.157Z,4.68
2018-12-21T06:11:02.454Z,4.68
2018-12-21T06:12:02.810Z,4.81
2018-12-21T06:13:03.073Z,4.81
2018-12-21T06:14:02.361Z,4.81
2018-12-21T06:15:02.671Z,4.81
2018-12-21T06:16:03.009Z,4.81
2018-12-21T06:17:02.284Z,4.81
2018-12-21T06:18:02.659Z,4.81
2018-12-21T06:19:02.933Z,4.75
2018-12-21T06:20:03.266Z,4.75
2018-12-21T06:21:03.390Z,4.68
2018-12-21T06:22:02.677Z,4.68
2018-12-21T06:23:09.354Z,4.81
2018-12-21T06:24:02.974Z,4.81
2018-12-21T06:25:02.274Z,4.68
2018-12-21T06:26:02.596Z,4.68
2018-12-21T06:27:02.918Z,4.68
2018-12-21T06:28:03.251Z,4.68
2018-12-21T06:29:02.573Z,4.68
2018-12-21T06:30:02.838Z,4.68
2018-12-21T06:31:03.160Z,4.68
2018-12-21T06:32:02.419Z,4.75
2018-12-21T06:33:02.684Z,4.68
2018-12-21T06:34:03.093Z,4.75
2018-12-21T06:35:02.360Z,4.62
2018-12-21T06:36:02.693Z,4.68
2018-12-21T06:37:03.006Z,4.75
2018-12-21T06:38:02.272Z,4.75
2018-12-21T06:39:02.652Z,4.75
2018-12-21T06:40:02.975Z,4.75
2018-12-21T06:41:02.277Z,4.68
2018-12-21T06:42:02.604Z,4.68
2018-12-21T06:43:02.915Z,4.62
2018-12-21T06:44:03.150Z,4.68
2018-12-21T06:45:02.465Z,4.62
2018-12-21T06:46:02.853Z,4.56
2018-12-21T06:47:03.166Z,4.56
2018-12-21T06:48:02.533Z,4.56
2018-12-21T06:49:02.953Z,4.5
2018-12-21T06:50:03.242Z,4.5
2018-12-21T06:51:02.527Z,4.5
2018-12-21T06:52:02.935Z,4.5
2018-12-21T06:53:03.245Z,4.5
2018-12-21T06:54:02.572Z,4.43
2018-12-21T06:55:02.847Z,4.5
2018-12-21T06:56:03.178Z,4.43
2018-12-21T06:57:02.440Z,4.43
2018-12-21T06:58:02.815Z,4.43
2018-12-21T06:59:03.082Z,4.43
2018-12-21T07:00:02.553Z,4.43
2018-12-21T07:01:02.840Z,4.43
2018-12-21T07:02:03.147Z,4.43
2018-12-21T07:03:02.446Z,4.43
2018-12-21T07:04:02.820Z,4.37
2018-12-21T07:05:03.085Z,4.43
2018-12-21T07:06:02.421Z,4.43
2018-12-21T07:07:02.671Z,4.5
2018-12-21T07:08:02.913Z,4.5
2018-12-21T07:09:03.293Z,4.5
2018-12-21T07:10:02.609Z,4.5
2018-12-21T07:11:02.934Z,4.5
2018-12-21T07:12:03.249Z,4.5
2018-12-21T07:13:02.652Z,4.56
2018-12-21T07:14:02.918Z,4.5
2018-12-21T07:15:03.338Z,4.5
2018-12-21T07:16:02.654Z,4.5
2018-12-21T07:17:02.996Z,4.56
2018-12-21T07:18:02.286Z,4.56
2018-12-21T07:19:02.617Z,4.5
2018-12-21T07:20:02.924Z,4.43
2018-12-21T07:21:03.293Z,4.43
2018-12-21T07:22:02.605Z,4.43
2018-12-21T07:23:03.819Z,4.5
2018-12-21T07:24:03.100Z,4.5
2018-12-21T07:25:02.446Z,4.56
2018-12-21T07:26:04.613Z,4.56
2018-12-21T07:27:02.936Z,4.62
2018-12-21T07:28:03.228Z,4.5
2018-12-21T07:29:02.523Z,4.5
2018-12-21T07:30:02.836Z,4.5
2018-12-21T07:31:03.152Z,4.5
2018-12-21T07:32:02.526Z,4.5
2018-12-21T07:33:02.841Z,4.5
2018-12-21T07:34:03.181Z,4.56
2018-12-21T07:35:02.452Z,4.56
2018-12-21T07:36:08.050Z,4.62
2018-12-21T07:37:02.849Z,4.62
2018-12-21T07:38:03.218Z,4.62
2018-12-21T07:39:02.511Z,4.68
2018-12-21T07:40:02.766Z,4.75
2018-12-21T07:41:03.145Z,4.62
2018-12-21T07:42:02.442Z,4.56
2018-12-21T07:43:02.760Z,4.62
2018-12-21T07:44:03.130Z,4.68
2018-12-21T07:45:02.454Z,4.62
2018-12-21T07:46:02.750Z,4.62
2018-12-21T07:47:03.081Z,4.62
2018-12-21T07:48:02.379Z,4.62
2018-12-21T07:49:02.674Z,4.68
2018-12-21T07:50:03.024Z,4.62
2018-12-21T07:51:02.392Z,4.68
2018-12-21T07:52:02.679Z,4.68
2018-12-21T07:53:03.001Z,4.68
2018-12-21T07:54:02.324Z,4.75
2018-12-21T07:55:03.052Z,4.68
2018-12-21T07:56:02.375Z,4.68
2018-12-21T07:57:02.728Z,4.68
2018-12-21T07:58:03.004Z,4.56
2018-12-21T07:59:02.275Z,4.75
2018-12-21T08:00:02.606Z,4.68
2018-12-21T08:01:02.967Z,4.68
2018-12-21T08:02:02.279Z,4.68
2018-12-21T08:03:02.607Z,4.68
2018-12-21T08:04:02.923Z,4.75
2018-12-21T08:05:03.267Z,4.75
2018-12-21T08:06:02.607Z,4.75
2018-12-21T08:07:02.977Z,4.75
2018-12-21T08:08:02.273Z,4.81
2018-12-21T08:09:02.600Z,4.87
2018-12-21T08:10:02.928Z,4.87
2018-12-21T08:11:03.232Z,4.87
2018-12-21T08:12:02.527Z,4.87
2018-12-21T08:13:02.905Z,4.87
2018-12-21T08:14:03.137Z,4.87
2018-12-21T08:15:02.443Z,4.81
2018-12-21T08:16:02.764Z,4.87
2018-12-21T08:17:03.078Z,4.81
2018-12-21T08:18:02.369Z,4.81
2018-12-21T08:19:02.739Z,4.81
2018-12-21T08:20:03.052Z,4.87
2018-12-21T08:21:02.343Z,5
2018-12-21T08:22:02.619Z,5
2018-12-21T08:23:02.924Z,5
2018-12-21T08:24:04.216Z,5
2018-12-21T08:25:02.510Z,4.93
2018-12-21T08:26:02.766Z,4.93
2018-12-21T08:27:03.084Z,5.12
2018-12-21T08:28:02.346Z,5.12
2018-12-21T08:29:02.586Z,5.06
2018-12-21T08:30:02.921Z,5.12
2018-12-21T08:31:03.257Z,5.18
2018-12-21T08:32:02.516Z,5.18
2018-12-21T08:33:02.837Z,5.25
2018-12-21T08:34:03.172Z,5.25
2018-12-21T08:35:02.443Z,5.18
2018-12-21T08:36:02.822Z,5.25
2018-12-21T08:37:03.138Z,5.25
2018-12-21T08:38:02.438Z,5.18
2018-12-21T08:39:02.756Z,5.25
2018-12-21T08:40:03.097Z,5.31
2018-12-21T08:41:02.364Z,5.31
2018-12-21T08:42:02.846Z,5.31
2018-12-21T08:43:03.169Z,5.25
2018-12-21T08:44:02.437Z,5.25
2018-12-21T08:45:02.767Z,5.18
2018-12-21T08:46:03.083Z,5.25
2018-12-21T08:47:02.363Z,5.25
2018-12-21T08:48:02.765Z,5.12
2018-12-21T08:49:03.079Z,5.25
2018-12-21T08:50:02.360Z,5.25
2018-12-21T08:51:02.736Z,5.37
2018-12-21T08:52:02.997Z,5.31
2018-12-21T08:53:02.333Z,5.31
2018-12-21T08:54:02.692Z,5.31
2018-12-21T08:55:02.992Z,5.25
2018-12-21T08:56:02.271Z,5.25
2018-12-21T08:57:02.597Z,5.31
2018-12-21T08:58:02.835Z,5.31
2018-12-21T08:59:03.127Z,5.31
2018-12-21T09:00:02.433Z,5.25
2018-12-21T09:01:02.757Z,5.31
2018-12-21T09:02:03.083Z,5.25
2018-12-21T09:03:02.365Z,5.25
2018-12-21T09:04:02.798Z,5.37
2018-12-21T09:05:03.084Z,5.37
2018-12-21T09:06:02.412Z,5.37
2018-12-21T09:07:02.726Z,5.37
2018-12-21T09:08:03.017Z,5.43
2018-12-21T09:09:02.281Z,5.37
2018-12-21T09:10:02.658Z,5.37
2018-12-21T09:11:02.940Z,5.37
2018-12-21T09:12:03.238Z,5.37
2018-12-21T09:13:02.539Z,5.37
2018-12-21T09:14:02.830Z,5.25
2018-12-21T09:15:03.128Z,5.31
2018-12-21T09:16:02.434Z,5.31
2018-12-21T09:17:02.756Z,5.43
2018-12-21T09:18:03.004Z,5.43
2018-12-21T09:19:02.290Z,5.37
2018-12-21T09:20:02.649Z,5.43
2018-12-21T09:21:03.038Z,5.37
2018-12-21T09:22:02.368Z,5.31
2018-12-21T09:23:02.728Z,5.31
2018-12-21T09:24:03.007Z,5.25
2018-12-21T09:25:02.275Z,5.31
2018-12-21T09:26:02.611Z,5.37
2018-12-21T09:27:02.969Z,5.37
2018-12-21T09:28:02.280Z,5.37
2018-12-21T09:29:02.599Z,5.43
2018-12-21T09:30:02.912Z,5.37
2018-12-21T09:31:03.175Z,5.37
2018-12-21T09:32:05.110Z,5.37
2018-12-21T09:33:02.634Z,5.31
2018-12-21T09:34:02.927Z,5.25
2018-12-21T09:35:03.314Z,5.25
2018-12-21T09:36:02.596Z,5.18
2018-12-21T09:37:02.916Z,5.25
2018-12-21T09:38:03.301Z,5.25
2018-12-21T09:39:02.584Z,5.25
2018-12-21T09:40:02.829Z,5.31
2018-12-21T09:41:03.080Z,5.31
2018-12-21T09:42:02.355Z,5.31
2018-12-21T09:43:02.678Z,5.25
2018-12-21T09:44:03.096Z,5.31
2018-12-21T09:45:02.369Z,5.31
2018-12-21T09:46:02.674Z,5.25
2018-12-21T09:47:03.010Z,5.31
2018-12-21T09:48:02.272Z,5.25
2018-12-21T09:49:02.566Z,5.25
2018-12-21T09:50:02.936Z,5.25
2018-12-21T09:51:03.245Z,5.18
2018-12-21T09:52:02.511Z,5.25
2018-12-21T09:53:02.761Z,5.25
2018-12-21T09:54:09.790Z,5.18
2018-12-21T09:55:02.410Z,5.18
2018-12-21T09:56:02.725Z,5.25
2018-12-21T09:57:02.991Z,5.43
2018-12-21T09:58:02.331Z,5.5
2018-12-21T09:59:02.592Z,5.43
2018-12-21T10:00:02.847Z,5.5
2018-12-21T10:01:03.265Z,5.62
2018-12-21T10:02:02.591Z,5.56
2018-12-21T10:03:02.832Z,5.5
2018-12-21T10:04:03.166Z,5.5
2018-12-21T10:05:02.463Z,5.56
2018-12-21T10:06:02.768Z,5.62
2018-12-21T10:07:03.132Z,5.62
2018-12-21T10:08:02.452Z,5.68
2018-12-21T10:09:02.811Z,5.75
2018-12-21T10:10:03.089Z,5.56
2018-12-21T10:11:02.355Z,5.68
2018-12-21T10:12:02.682Z,5.62
2018-12-21T10:13:03.062Z,5.68
2018-12-21T10:14:02.368Z,5.56
2018-12-21T10:15:02.692Z,5.5
2018-12-21T10:16:02.991Z,5.43
2018-12-21T10:17:02.290Z,5.5
2018-12-21T10:18:02.598Z,5.62
2018-12-21T10:19:02.967Z,5.62
2018-12-21T10:20:02.278Z,5.62
2018-12-21T10:21:02.600Z,5.62
2018-12-21T10:22:02.908Z,5.62
2018-12-21T10:23:03.177Z,5.5
2018-12-21T10:24:02.443Z,5.5
2018-12-21T10:25:02.821Z,5.5
2018-12-21T10:26:03.096Z,5.43
2018-12-21T10:27:02.362Z,5.43
2018-12-21T10:28:02.691Z,5.37
2018-12-21T10:29:02.992Z,5.37
2018-12-21T10:30:02.294Z,5.37
2018-12-21T10:31:02.683Z,5.37
2018-12-21T10:32:03.011Z,5.31
2018-12-21T10:33:02.289Z,5.43
2018-12-21T10:34:02.580Z,5.43
2018-12-21T10:35:02.835Z,5.5
2018-12-21T10:36:03.199Z,5.5
2018-12-21T10:37:02.552Z,5.56
2018-12-21T10:38:02.836Z,5.62
2018-12-21T10:39:03.164Z,5.62
2018-12-21T10:40:02.518Z,5.62
2018-12-21T10:41:02.884Z,5.68
2018-12-21T10:42:03.212Z,5.68
2018-12-21T10:43:02.535Z,5.62
2018-12-21T10:44:02.834Z,5.62
2018-12-21T10:45:03.081Z,5.62
2018-12-21T10:46:02.360Z,5.62
2018-12-21T10:47:02.730Z,5.56
2018-12-21T10:48:03.051Z,5.56
2018-12-21T10:49:02.353Z,5.62
2018-12-21T10:50:02.684Z,5.56
2018-12-21T10:51:02.997Z,5.56
2018-12-21T10:52:02.323Z,5.62
2018-12-21T10:53:02.596Z,5.62
2018-12-21T10:54:03.081Z,5.56
2018-12-21T10:55:02.422Z,5.56
2018-12-21T10:56:02.682Z,5.5
2018-12-21T10:57:03.002Z,5.5
2018-12-21T10:58:02.275Z,5.43
2018-12-21T10:59:02.602Z,5.43
2018-12-21T11:00:03.010Z,5.43
2018-12-21T11:01:02.271Z,5.43
2018-12-21T11:02:02.523Z,5.43
2018-12-21T11:03:02.851Z,5.43
2018-12-21T11:04:03.168Z,5.43
2018-12-21T11:05:02.448Z,5.37
2018-12-21T11:06:03.734Z,5.43
2018-12-21T11:07:02.988Z,5.37
2018-12-21T11:08:02.273Z,5.37
2018-12-21T11:09:02.593Z,5.43
2018-12-21T11:10:03.047Z,5.5
2018-12-21T11:11:02.356Z,5.5
2018-12-21T11:12:02.769Z,5.43
2018-12-21T11:13:03.076Z,5.43
2018-12-21T11:14:02.360Z,5.43
2018-12-21T11:15:02.724Z,5.5
2018-12-21T11:16:02.995Z,5.5
2018-12-21T11:17:02.296Z,5.5
2018-12-21T11:18:02.694Z,5.43
2018-12-21T11:19:03.003Z,5.5
2018-12-21T11:20:02.285Z,5.56
2018-12-21T11:21:02.638Z,5.5
2018-12-21T11:22:02.916Z,5.5
2018-12-21T11:23:03.326Z,5.5
2018-12-21T11:24:02.596Z,5.5
2018-12-21T11:25:02.929Z,5.56
2018-12-21T11:26:03.299Z,5.56
2018-12-21T11:27:02.596Z,5.56
2018-12-21T11:28:02.944Z,5.56
2018-12-21T11:29:03.301Z,5.56
2018-12-21T11:30:02.594Z,5.56
2018-12-21T11:31:02.861Z,5.62
2018-12-21T11:32:03.155Z,5.68
2018-12-21T11:33:02.448Z,5.68
2018-12-21T11:34:03.688Z,5.68
2018-12-21T11:35:03.114Z,5.75
2018-12-21T11:36:02.371Z,5.75
2018-12-21T11:37:02.695Z,5.81
2018-12-21T11:38:02.993Z,5.81
2018-12-21T11:39:02.276Z,5.87
2018-12-21T11:40:02.518Z,5.87
2018-12-21T11:41:02.933Z,5.87
2018-12-21T11:42:04.178Z,5.87
2018-12-21T11:43:02.440Z,5.81
2018-12-21T11:44:02.758Z,5.81
2018-12-21T11:45:03.078Z,5.81
2018-12-21T11:46:02.414Z,5.75
2018-12-21T11:47:02.695Z,5.81
2018-12-21T11:48:02.990Z,5.75
2018-12-21T11:49:02.294Z,5.75
2018-12-21T11:50:02.592Z,5.75
2018-12-21T11:51:02.849Z,5.75
2018-12-21T11:52:03.213Z,5.75
2018-12-21T11:53:02.523Z,5.75
2018-12-21T11:54:02.834Z,5.81
2018-12-21T11:55:03.169Z,5.81
2018-12-21T11:56:02.445Z,5.75
2018-12-21T11:57:02.821Z,5.75
2018-12-21T11:58:03.135Z,5.75
2018-12-21T11:59:02.440Z,5.75
2018-12-21T12:00:02.771Z,5.68
2018-12-21T12:01:03.104Z,5.68
2018-12-21T12:02:02.436Z,5.75
2018-12-21T12:03:02.767Z,5.75
2018-12-21T12:04:03.130Z,5.75
2018-12-21T12:05:03.157Z,5.81
2018-12-21T12:06:02.601Z,5.81
2018-12-21T12:07:02.912Z,5.81
2018-12-21T12:08:03.236Z,5.75
2018-12-21T12:09:06.250Z,5.75
2018-12-21T12:10:02.980Z,5.81
2018-12-21T12:11:02.354Z,5.81
2018-12-21T12:12:02.676Z,5.87
2018-12-21T12:13:03.012Z,5.81
2018-12-21T12:14:02.468Z,5.81
2018-12-21T12:15:02.804Z,5.81
2018-12-21T12:16:03.247Z,5.87
2018-12-21T12:17:02.527Z,5.81
2018-12-21T12:18:02.838Z,5.93
2018-12-21T12:19:03.162Z,5.93
2018-12-21T12:20:02.431Z,5.93
2018-12-21T12:21:02.732Z,5.93
2018-12-21T12:22:03.086Z,5.93
2018-12-21T12:23:02.354Z,5.93
2018-12-21T12:24:02.677Z,6
2018-12-21T12:25:02.996Z,6.06
2018-12-21T12:26:02.274Z,6
2018-12-21T12:27:02.554Z,6
2018-12-21T12:28:02.955Z,6
2018-12-21T12:29:02.285Z,5.93
2018-12-21T12:30:02.686Z,5.93
2018-12-21T12:31:02.995Z,5.93
2018-12-21T12:32:02.279Z,6
2018-12-21T12:33:02.622Z,6
2018-12-21T12:34:03.033Z,5.93
2018-12-21T12:35:02.376Z,5.93
2018-12-21T12:36:02.675Z,5.93
2018-12-21T12:37:02.999Z,6
2018-12-21T12:38:02.281Z,5.93
2018-12-21T12:39:02.612Z,5.81
2018-12-21T12:40:03.005Z,5.81
2018-12-21T12:41:06.468Z,5.81
2018-12-21T12:42:03.774Z,5.75
2018-12-21T12:43:03.166Z,5.81
2018-12-21T12:44:02.451Z,5.81
2018-12-21T12:45:02.809Z,5.81
2018-12-21T12:46:03.172Z,5.81
2018-12-21T12:47:03.332Z,5.81
2018-12-21T12:48:02.607Z,5.75
2018-12-21T12:49:02.923Z,5.81
2018-12-21T12:50:03.232Z,5.81
2018-12-21T12:51:02.526Z,5.75
2018-12-21T12:52:02.935Z,5.75
2018-12-21T12:53:03.356Z,5.75
2018-12-21T12:54:02.686Z,5.81
2018-12-21T12:55:03.304Z,5.81
2018-12-21T12:56:05.121Z,5.81
2018-12-21T12:57:02.604Z,5.75
2018-12-21T12:58:03.131Z,5.75
2018-12-21T12:59:03.442Z,5.75
2018-12-21T13:00:02.754Z,5.75
2018-12-21T13:01:03.085Z,5.68
2018-12-21T13:02:03.300Z,5.75
2018-12-21T13:03:02.602Z,5.75
2018-12-21T13:04:02.974Z,5.75
2018-12-21T13:05:02.275Z,5.75
2018-12-21T13:06:02.583Z,5.75
2018-12-21T13:07:02.832Z,5.75
2018-12-21T13:08:03.157Z,5.75
2018-12-21T13:09:03.381Z,5.81
2018-12-21T13:10:02.686Z,5.81
2018-12-21T13:11:02.988Z,5.81
2018-12-21T13:12:02.272Z,5.81
2018-12-21T13:13:02.602Z,5.75
2018-12-21T13:14:03.797Z,5.81
2018-12-21T13:15:03.131Z,5.81
2018-12-21T13:16:02.438Z,5.81
2018-12-21T13:17:02.764Z,5.81
2018-12-21T13:18:03.130Z,5.81
2018-12-21T13:19:03.318Z,5.81
2018-12-21T13:20:02.658Z,5.81
2018-12-21T13:21:03.203Z,5.81
2018-12-21T13:22:02.521Z,5.81